Aktualne dane pomiarowe

Uwaga, wersja testowa! Automatyczne pobieranie danych za pomocą narzędzi lub skryptów to umożliwiających jest zabronione.

Dane meteo z obszaru Polski uzyskane na podstawie depesz SYNOP pobieranych co godzinę z NWS. Najedź myszką na symbol przedstawiony w tabeli, aby uzyskać informacje co do jego znaczenia. Prosimy pamiętać, że to testowa wersja strony, która jeszcze nie jest ukończona. Stworzono również jest krótki FAQ dotyczący korzystania z tej podstrony Anomalie temperatury w chwili obecnej odniesione są do okresu referencyjnego 1951-2016. Okres ten będzie później zmieniony na 1981-2010. Kliknij ikonę aby pobrać plik CSV. Kliknij ikonę aby wygenerować mapę synoptyczną dla danego terminu.

Wybierz Datę:    

        

Siedlce (12385)

Dane terminowe dla wybranej stacji. Kliknij datę, aby otrzymać dane z tego terminu dla wszystkich stacji.

TemperaturaZachmurzenieWiatrCiśnienieOpadyPogoda
 Data t td wb tx tn tg rh  Nt Nl Cl Cm Ch ws wd g1 g2 wx mslp ppp ch 24h 12h t ww ww w1 w2  
2019-07-02 23:00:00 12.6 7.9 9.7--- 7345.0wxwxwx1wx--11016.9 998.4 1.2---------
2019-07-02 22:00:00 13.5 8.1 10.2--- 7045.0wx-wx1wx--11016.4 998.0 1.3---------
2019-07-02 21:00:00 15.0 8.2 10.9--- 6445.0wx-wxwx2wx--21016.0 997.7 1.5---------
2019-07-02 20:00:00 16.2 8.9 11.8--- 6245.0wx-wx2wx--21015.4 997.2 1.1---------
2019-07-02 19:00:00 18.3 9.4 13.0--- 5645.0wxwxwxwx2wx--21014.8 996.7 1.1---------
2019-07-02 18:00:00 20.8 8.4 13.7 25.4 18.3- 4530.0wx-wx4wx-1241014.1 996.2 0.9- 0.012------
2019-07-02 17:00:00 21.5 8.0 13.8--- 4245.0wxwxwxwx5wx-1251014.0 996.1 0.7---------
2019-07-02 16:00:00 22.6 7.2 14.0--- 3740.0wxwxwxwxwx5wx101051013.4 995.6 0.1---------
2019-07-02 15:00:00 23.9 6.6 14.3--- 3330.0wxwxwxwxwx6wx-1261013.0 995.3 -0.1---------
2019-07-02 14:00:00 24.6 8.1 15.2--- 3530.0wxwxwxwxwx6wx-1161013.1 995.4 -0.1---------
2019-07-02 13:00:00 24.7 8.2 15.3--- 3528.0wxwxwxwx5wx-1151013.2 995.5 0.0---------
2019-07-02 12:00:00 24.4 7.9 15.0--- 3527.0wxwxwxwx6wx121261013.1 995.4 -0.3- 0.06------
2019-07-02 11:00:00 24.2 9.7 15.7--- 4023.0wxwxwxwx6wx-1161013.2 995.5 -0.3---------
2019-07-02 10:00:00 23.0 9.4 15.1--- 4230.0wxwxwxwx6wx-1061013.3 995.5 -0.2---------
2019-07-02 09:00:00 22.2 11.0 15.5--- 4935.0wxwxwxwx5wx-951013.5 995.7 0.2---------
2019-07-02 08:00:00 21.7 9.9 14.7--- 4728.0wxwxwxwxwx5wx--51013.6 995.8 0.5---------
2019-07-02 07:00:00 20.7 11.1 14.9--- 5427.0wxwxwxwxwx3wx--31013.6 995.7 0.8---------
2019-07-02 06:00:00 18.4 12.4 14.6 24.7 15.1 12 6835.0wxwxwxwxwx2wx--21013.5 995.5 1.7 0.3 0.312----- 12.7
2019-07-02 05:00:00 16.5 13.4 14.4--- 8229.0wxwxwxwxwx2wx--21013.5 995.3 1.5---------
2019-07-02 04:00:00 16.1 12.8 13.9--- 8130.0wxwxwxwxwx2wx--21013.1 994.9 0.6---------
2019-07-02 03:00:00 15.8 11.8 13.2--- 7740.0wx-wxwx1wx--11012.0 993.8 -0.9---------
2019-07-02 02:00:00 16.8 11.7 13.5--- 7240.0wx-wxwx1wx---1011.9 993.8 -0.9---------
2019-07-02 01:00:00 17.5 12.0 14.0--- 7045.0wxwxwxwxwx2wx--21012.4 994.3 -0.4---------
2019-07-02 00:00:00 17.9 13.0 14.7--- 7345.0wxwxwx2wx---1012.8 994.7 0.2---wx-w1--
2019-07-01 23:00:00 17.1 14.2 15.1--- 8345.0wxwxwx1wx--11012.8 994.7 0.3---------
2019-07-01 22:00:00 16.9 13.4 14.5--- 8040.0wxwxwxwxwx1wx--11012.8 994.7 1.6---------
2019-07-01 21:00:00 17.9 13.2 14.8--- 7445.0wxwxwxwxwx2wx--21012.6 994.5 1.6---wx---
2019-07-01 20:00:00 19.6 11.4 14.5--- 5916.0wxwxwxwx2wx--21012.4 994.4 1.5---wx---
2019-07-01 19:00:00 22.8 11.5 16.0--- 4945.0wxwxwxwxwx2wx--21010.8 993.1 0.7---------
2019-07-01 18:00:00 24.6 11.9 16.9 33.4 24.6- 4540.0wxwxwxwxwx3wx-1331010.5 992.9 0.8- 0.012------
2019-07-01 17:00:00 25.8 11.9 17.4--- 4230.0wx-wxwx4wx---1010.4 992.9 -0.3---------
2019-07-01 16:00:00 27.4 12.6 18.3--- 4030.0wx-wx4wx---1009.8 992.4 -1.5---------
2019-07-01 15:00:00 27.2 12.0 18.0--- 3930.0wx-wx1wx-1311009.6 992.1 -0.2---------
2019-07-01 14:00:00 26.3 12.4 17.8--- 4235.0wxwxwxwx3wx---1010.7 993.2 1.1---------
2019-07-01 13:00:00 27.0 11.1 17.5--- 3722.0wxwxwxwx7wx131371011.4 993.9 1.6---------
2019-07-01 12:00:00 32.3 15.3 21.5--- 3628.0wx-wx5wx--51009.5 992.3 -0.8- 0.06------
2019-07-01 11:00:00 32.5 15.1 21.4--- 3530.0wx-wx3wx--31009.2 992.1 -0.9---------
2019-07-01 10:00:00 31.5 13.7 20.4--- 3424.0wx-wxwx3wx--31009.5 992.3 -0.6---------
2019-07-01 09:00:00 30.0 14.5 20.2--- 3926.0wx-wxwx2wx--21010.4 993.1 0.0---------
2019-07-01 08:00:00 29.0 14.0 19.6--- 4023.0wxwxwxwxwx2wx--21010.4 993.0 0.1---------
2019-07-01 07:00:00 26.8 13.9 18.7--- 4530.0wx-wx1wx--11010.4 992.9 0.3---------
2019-07-01 06:00:00 25.3 15.0 18.7 29.6 21.4 17 5328.0wx-wxwx3wx--31010.7 993.1 1.0- 0.012----- 14.9
2019-07-01 05:00:00 23.6 14.9 18.0--- 5830.0wxwxwxwx3wx--31010.6 992.9 0.7---------
2019-07-01 04:00:00 22.5 14.1 17.1--- 5935.0wx-wx3wx--31010.3 992.6 0.2---------
2019-07-01 03:00:00 21.5 12.9 16.1--- 5845.0wx-wx2wx--21009.9 992.1 -0.6---------
2019-07-01 02:00:00 22.1 12.6 16.2--- 5545.0wx-wx2wx--21010.0 992.2 -0.6---------
2019-07-01 01:00:00 22.6 12.2 16.2--- 5250.0wx-wx2wx--21010.1 992.4 -0.7---------
2019-07-01 00:00:00 22.9 12.5 16.5--- 5245.0wx-3wx--31010.4 992.7 -0.8- 0.06------
1.4 ms

 

Print Friendly, PDF & Email